Time;durP1;ratioP1;P1;durP2;ratioP2;P2;SDS_P1;SDS_P2;PMS_P1;PMS_P2;Temp;Humidity;BMP_temperature;BMP_pressure;BME280_temperature;BME280_humidity;BME280_pressure;Samples;Min_cycle;Max_cycle;Signal;HPM_P1;HPM_P2
2020/12/02 00:00:09;;;;;;;16.80;8.37;;;7.50;93.30;;;;;;5024621;28;20072;-72
2020/12/02 00:03:10;;;;;;;16.23;8.07;;;7.50;93.40;;;;;;5021923;28;20084;-73
2020/12/02 00:05:41;;;;;;;16.27;8.37;;;7.50;93.40;;;;;;5015809;28;20045;-72
2020/12/02 00:08:15;;;;;;;17.83;8.73;;;7.50;93.40;;;;;;5022065;28;20033;-71
2020/12/02 00:10:42;;;;;;;16.20;7.93;;;7.50;93.40;;;;;;5043864;28;20064;-72
2020/12/02 00:13:14;;;;;;;20.13;9.00;;;7.40;93.40;;;;;;5028194;28;20151;-72
2020/12/02 00:15:40;;;;;;;15.50;7.28;;;7.40;93.40;;;;;;5036320;28;20048;-72
2020/12/02 00:18:07;;;;;;;15.70;8.30;;;7.40;93.40;;;;;;5038664;28;20537;-72
2020/12/02 00:20:33;;;;;;;18.83;8.70;;;7.40;93.40;;;;;;5029849;28;20068;-72
2020/12/02 00:23:00;;;;;;;15.77;8.47;;;7.40;93.40;;;;;;5050108;28;20052;-72
2020/12/02 00:25:26;;;;;;;17.90;8.57;;;7.40;93.40;;;;;;5033385;28;20107;-72
2020/12/02 00:27:53;;;;;;;15.17;8.10;;;7.40;93.40;;;;;;5040690;28;20042;-72
2020/12/02 00:30:19;;;;;;;18.90;8.30;;;7.40;93.40;;;;;;5028133;28;20114;-72
2020/12/02 00:32:47;;;;;;;14.40;7.77;;;7.40;93.40;;;;;;5004901;28;20091;-72
2020/12/02 00:35:19;;;;;;;15.73;7.70;;;7.40;93.50;;;;;;5022535;28;20037;-72
2020/12/02 00:37:46;;;;;;;13.73;7.27;;;7.40;93.50;;;;;;5041505;28;20494;-72
2020/12/02 00:40:24;;;;;;;16.07;7.13;;;7.40;93.50;;;;;;5012806;28;20444;-78
2020/12/02 00:42:51;;;;;;;17.83;9.17;;;7.40;93.50;;;;;;5010200;28;20061;-78
2020/12/02 00:45:17;;;;;;;15.27;6.73;;;7.40;93.50;;;;;;5014068;28;20037;-78
2020/12/02 00:47:50;;;;;;;12.93;7.30;;;7.40;93.50;;;;;;5048172;28;20044;-78
2020/12/02 00:50:18;;;;;;;12.63;6.85;;;7.40;93.50;;;;;;5046873;28;20491;-78
2020/12/02 00:53:07;;;;;;;13.53;7.23;;;7.40;93.50;;;;;;5035450;28;20041;-78
2020/12/02 00:55:34;;;;;;;12.40;6.50;;;7.40;93.70;;;;;;5049438;28;20046;-78
2020/12/02 00:58:09;;;;;;;15.57;6.80;;;7.40;93.50;;;;;;5024371;28;20053;-78
2020/12/02 01:00:39;;;;;;;13.33;7.50;;;7.40;93.50;;;;;;5049739;28;20425;-78
2020/12/02 01:03:13;;;;;;;10.57;5.70;;;7.40;93.50;;;;;;5042024;28;20158;-78
2020/12/02 01:05:39;;;;;;;13.17;6.80;;;7.40;93.50;;;;;;5043382;28;20037;-79
2020/12/02 01:08:17;;;;;;;12.93;6.10;;;7.40;93.60;;;;;;5026230;28;20033;-78
2020/12/02 01:10:46;;;;;;;12.97;6.80;;;7.40;93.50;;;;;;5033788;28;20113;-78
2020/12/02 01:13:12;;;;;;;13.03;5.87;;;7.40;93.80;;;;;;5047413;28;20060;-78
2020/12/02 01:15:39;;;;;;;13.27;6.00;;;7.40;93.60;;;;;;5047381;28;20069;-78
2020/12/02 01:18:24;;;;;;;15.10;6.63;;;7.40;93.60;;;;;;5033556;28;20065;-78
2020/12/02 01:21:02;;;;;;;12.30;6.10;;;7.40;93.60;;;;;;5022429;28;20072;-78
2020/12/02 01:23:29;;;;;;;13.00;6.20;;;7.40;93.60;;;;;;5035837;28;20076;-78
2020/12/02 01:25:55;;;;;;;13.07;6.50;;;7.40;93.60;;;;;;5033895;28;20076;-78
2020/12/02 01:28:27;;;;;;;13.73;7.60;;;7.40;93.60;;;;;;5034766;28;20045;-78
2020/12/02 01:30:57;;;;;;;17.35;6.85;;;7.40;93.60;;;;;;5051984;28;20492;-78
2020/12/02 01:33:25;;;;;;;14.23;7.20;;;7.40;93.60;;;;;;5044573;28;20042;-78
2020/12/02 01:35:52;;;;;;;13.63;6.37;;;7.30;93.60;;;;;;5025650;28;20069;-78
2020/12/02 01:38:26;;;;;;;14.30;7.47;;;7.30;93.60;;;;;;5023906;28;20072;-78
2020/12/02 01:40:53;;;;;;;16.83;8.30;;;7.40;93.60;;;;;;5050535;28;20056;-78
2020/12/02 01:43:19;;;;;;;16.33;8.27;;;7.30;93.60;;;;;;5033506;28;20084;-78
2020/12/02 01:45:50;;;;;;;17.10;7.97;;;7.30;93.50;;;;;;5031837;28;20135;-78
2020/12/02 01:48:35;;;;;;;15.30;7.50;;;7.30;93.60;;;;;;5036016;28;20437;-78
2020/12/02 01:51:26;;;;;;;17.73;9.17;;;7.30;93.60;;;;;;5033867;28;20497;-78
2020/12/02 01:54:13;;;;;;;14.63;6.77;;;7.30;93.60;;;;;;5052162;28;20103;-78
2020/12/02 01:56:58;;;;;;;13.27;6.37;;;7.30;93.60;;;;;;5048219;28;20879;-77
2020/12/02 01:59:57;;;;;;;15.50;7.43;;;7.30;93.60;;;;;;5021967;28;20087;-72
2020/12/02 02:02:40;;;;;;;15.13;7.37;;;7.30;93.60;;;;;;5023581;28;20053;-72
2020/12/02 02:05:10;;;;;;;;;;;7.30;93.60;;;;;;5040458;28;20046;-72
2020/12/02 02:07:38;;;;;;;10.33;5.47;;;7.30;93.70;;;;;;5025957;28;19933;-72
2020/12/02 02:10:14;;;;;;;16.20;8.10;;;7.30;93.70;;;;;;5045944;28;20114;-72
2020/12/02 02:13:05;;;;;;;13.43;7.23;;;7.40;93.70;;;;;;5036287;28;20088;-71
2020/12/02 02:15:51;;;;;;;14.50;7.20;;;7.30;93.60;;;;;;5045313;28;20103;-72
2020/12/02 02:18:26;;;;;;;13.37;6.43;;;7.30;93.60;;;;;;5052120;28;20550;-72
2020/12/02 02:20:57;;;;;;;12.63;6.53;;;7.30;93.60;;;;;;5035818;28;20096;-72
2020/12/02 02:23:24;;;;;;;12.03;6.03;;;7.30;93.60;;;;;;5048739;28;20056;-72
2020/12/02 02:26:17;;;;;;;14.33;6.50;;;7.30;93.60;;;;;;5035906;28;20046;-72
2020/12/02 02:28:53;;;;;;;14.33;6.90;;;7.30;93.60;;;;;;5027581;28;20095;-72
2020/12/02 02:31:23;;;;;;;15.47;7.70;;;7.30;93.70;;;;;;5022653;28;20033;-72
2020/12/02 02:33:51;;;;;;;18.47;8.00;;;7.30;93.70;;;;;;5018189;28;20037;-72
2020/12/02 02:36:22;;;;;;;15.40;8.13;;;7.30;93.60;;;;;;5025282;28;20056;-72
2020/12/02 02:38:50;;;;;;;17.27;8.30;;;7.30;93.60;;;;;;5030994;28;20537;-72
2020/12/02 02:41:17;;;;;;;15.53;7.23;;;7.30;93.70;;;;;;5035475;28;20122;-72
2020/12/02 02:43:44;;;;;;;14.57;7.50;;;7.30;93.70;;;;;;5035063;28;20485;-72
2020/12/02 02:46:11;;;;;;;13.60;6.03;;;7.30;93.70;;;;;;5031351;28;20092;-72
2020/12/02 02:48:38;;;;;;;13.10;6.70;;;7.30;93.70;;;;;;5016171;28;20045;-72
2020/12/02 02:51:04;;;;;;;17.13;7.30;;;7.30;93.70;;;;;;5031994;28;20519;-72
2020/12/02 02:53:32;;;;;;;14.23;6.80;;;7.30;93.70;;;;;;5034569;28;20482;-72
2020/12/02 02:55:58;;;;;;;15.97;7.50;;;7.30;93.70;;;;;;5042162;28;20069;-72
2020/12/02 02:58:27;;;;;;;13.60;6.93;;;7.30;93.70;;;;;;5037777;28;20095;-72
2020/12/02 03:00:55;;;;;;;15.43;7.60;;;7.30;93.70;;;;;;5023442;28;20042;-72
2020/12/02 03:03:22;;;;;;;17.53;8.07;;;7.30;93.70;;;;;;5033687;28;20042;-72
2020/12/02 03:05:49;;;;;;;17.30;8.53;;;7.30;93.70;;;;;;5037600;28;20094;-72
2020/12/02 03:08:17;;;;;;;13.80;6.73;;;7.30;93.70;;;;;;5027096;28;20067;-72
2020/12/02 03:10:45;;;;;;;17.60;8.73;;;7.30;93.70;;;;;;5035613;28;20408;-72
2020/12/02 03:13:39;;;;;;;15.93;8.77;;;7.30;93.70;;;;;;5039612;28;20037;-72
2020/12/02 03:16:27;;;;;;;13.27;5.47;;;7.30;93.70;;;;;;5043154;28;20190;-72
2020/12/02 03:18:59;;;;;;;12.53;6.07;;;7.30;93.70;;;;;;5029056;28;20046;-72
2020/12/02 03:21:25;;;;;;;13.30;5.57;;;7.20;93.70;;;;;;5042520;28;20056;-72
2020/12/02 03:23:52;;;;;;;13.23;6.07;;;7.30;93.70;;;;;;5018400;28;20144;-72
2020/12/02 03:26:20;;;;;;;13.33;6.13;;;7.30;93.70;;;;;;5039458;28;20055;-72
2020/12/02 03:28:47;;;;;;;11.20;5.03;;;7.30;93.70;;;;;;5027837;28;20133;-72
2020/12/02 03:31:15;;;;;;;14.97;6.50;;;7.30;93.70;;;;;;5017141;28;20100;-72
2020/12/02 03:33:42;;;;;;;17.40;7.27;;;7.30;93.70;;;;;;5025899;28;20042;-72
2020/12/02 03:36:13;;;;;;;14.87;6.50;;;7.30;93.70;;;;;;5023185;28;20071;-72
2020/12/02 03:38:40;;;;;;;13.43;6.50;;;7.20;93.70;;;;;;5041586;28;20056;-72
2020/12/02 03:41:07;;;;;;;14.97;7.93;;;7.20;93.70;;;;;;5031653;28;20500;-72
2020/12/02 03:43:34;;;;;;;14.93;7.07;;;7.20;93.70;;;;;;5019064;28;20045;-72
2020/12/02 03:46:00;;;;;;;18.20;8.33;;;7.20;93.70;;;;;;5025998;28;20061;-72
2020/12/02 03:48:27;;;;;;;16.40;7.17;;;7.20;93.70;;;;;;5023756;28;20041;-72
2020/12/02 03:50:53;;;;;;;16.70;6.97;;;7.20;93.70;;;;;;5032064;28;20088;-72
2020/12/02 03:53:20;;;;;;;18.30;7.97;;;7.20;93.70;;;;;;5034268;28;20370;-78
2020/12/02 03:55:47;;;;;;;14.83;7.50;;;7.20;93.70;;;;;;5026887;28;20067;-78
2020/12/02 03:58:14;;;;;;;16.60;8.57;;;7.20;93.80;;;;;;5038813;28;20112;-78
2020/12/02 04:00:41;;;;;;;16.57;7.70;;;7.20;93.70;;;;;;5020390;28;20033;-78
2020/12/02 04:03:08;;;;;;;13.03;6.17;;;7.10;93.70;;;;;;5049714;28;20056;-79
2020/12/02 04:05:34;;;;;;;13.37;6.67;;;7.10;93.70;;;;;;5011646;28;20042;-78
2020/12/02 04:08:01;;;;;;;13.33;6.23;;;7.20;93.80;;;;;;5029353;28;20490;-78
2020/12/02 04:10:31;;;;;;;13.53;6.27;;;7.20;93.80;;;;;;5033869;28;20488;-79
2020/12/02 04:12:58;;;;;;;13.90;5.93;;;7.20;93.80;;;;;;5038487;28;20037;-78
2020/12/02 04:15:25;;;;;;;12.37;5.40;;;7.20;93.80;;;;;;5051470;28;20041;-78
2020/12/02 04:17:53;;;;;;;13.43;6.60;;;7.20;93.80;;;;;;5048901;28;20366;-78
2020/12/02 04:20:21;;;;;;;12.97;6.03;;;7.20;93.80;;;;;;5047333;28;20029;-78
2020/12/02 04:22:49;;;;;;;16.63;7.13;;;7.20;93.80;;;;;;5040607;28;20049;-78
2020/12/02 04:25:16;;;;;;;19.17;6.93;;;7.20;93.80;;;;;;5022180;28;20505;-78
2020/12/02 04:27:43;;;;;;;15.40;6.70;;;7.20;93.80;;;;;;5033518;28;20049;-78
2020/12/02 04:30:09;;;;;;;14.70;6.10;;;7.20;93.80;;;;;;5031373;28;20401;-78
2020/12/02 04:32:36;;;;;;;18.70;7.53;;;7.10;93.80;;;;;;5023998;28;20503;-78
2020/12/02 04:35:05;;;;;;;14.83;7.37;;;7.10;93.80;;;;;;5031710;28;20442;-78
2020/12/02 04:37:33;;;;;;;12.73;6.17;;;7.10;93.80;;;;;;5045538;28;20063;-78
2020/12/02 04:40:05;;;;;;;14.23;6.67;;;7.10;93.80;;;;;;5031009;28;20489;-79
2020/12/02 04:42:37;;;;;;;12.27;6.27;;;7.10;93.80;;;;;;5035765;28;20493;-78
2020/12/02 04:45:06;;;;;;;17.47;7.77;;;7.10;93.80;;;;;;5046838;28;20071;-79
2020/12/02 04:47:35;;;;;;;11.60;4.63;;;7.10;93.90;;;;;;5045757;28;20383;-79
2020/12/02 04:50:24;;;;;;;12.13;5.20;;;7.10;93.90;;;;;;5041510;28;20118;-78
2020/12/02 04:53:23;;;;;;;12.87;5.50;;;7.20;93.90;;;;;;5029122;28;20052;-79
2020/12/02 04:55:54;;;;;;;14.60;6.07;;;7.20;93.90;;;;;;5033176;28;20049;-78
2020/12/02 04:58:39;;;;;;;10.53;5.57;;;7.20;93.90;;;;;;5015327;28;20070;-78
2020/12/02 05:01:45;;;;;;;10.07;4.90;;;7.20;93.90;;;;;;5018382;28;20049;-79
2020/12/02 05:04:20;;;;;;;13.47;5.43;;;7.20;93.80;;;;;;5027524;28;20046;-78
2020/12/02 05:07:03;;;;;;;14.67;6.33;;;7.20;93.90;;;;;;5023371;28;20061;-78
2020/12/02 05:09:31;;;;;;;12.37;5.63;;;7.20;93.80;;;;;;5032378;28;20038;-78
2020/12/02 05:12:01;;;;;;;13.77;6.63;;;7.20;93.80;;;;;;5047796;28;20068;-78
2020/12/02 05:14:37;;;;;;;13.00;4.87;;;7.20;93.80;;;;;;5017997;28;20331;-78
2020/12/02 05:17:16;;;;;;;13.50;6.20;;;7.20;93.80;;;;;;5030935;28;20099;-78
2020/12/02 05:20:03;;;;;;;11.17;5.60;;;7.20;93.80;;;;;;5033500;28;20124;-78
2020/12/02 05:22:37;;;;;;;12.40;5.27;;;7.20;93.90;;;;;;5028137;28;20041;-78
2020/12/02 05:25:06;;;;;;;10.67;4.93;;;7.20;94.10;;;;;;5041879;28;20065;-78
2020/12/02 05:27:36;;;;;;;14.37;5.40;;;7.20;93.80;;;;;;5025858;28;20477;-78
2020/12/02 05:30:21;;;;;;;11.60;5.33;;;7.20;93.80;;;;;;5028254;28;20041;-78
2020/12/02 05:33:10;;;;;;;10.13;4.87;;;7.20;93.80;;;;;;5035360;28;20037;-78
2020/12/02 05:35:42;;;;;;;12.37;5.37;;;7.20;93.80;;;;;;5024981;28;20030;-79
2020/12/02 05:38:10;;;;;;;12.35;5.00;;;7.10;93.80;;;;;;5037026;28;20047;-78
2020/12/02 05:40:38;;;;;;;14.93;5.47;;;7.20;93.80;;;;;;5041777;28;20037;-78
2020/12/02 05:43:18;;;;;;;11.33;5.03;;;7.10;93.80;;;;;;5042627;28;20052;-79
2020/12/02 05:45:48;;;;;;;20.60;6.70;;;7.10;93.80;;;;;;5035053;28;20392;-78
2020/12/02 05:48:22;;;;;;;15.40;7.00;;;7.10;93.80;;;;;;5033713;28;20513;-78
2020/12/02 05:50:50;;;;;;;12.83;5.93;;;7.10;93.90;;;;;;5049851;28;20048;-78
2020/12/02 05:53:27;;;;;;;12.97;6.10;;;7.00;93.90;;;;;;5043564;28;20077;-78
2020/12/02 05:55:54;;;;;;;12.90;5.07;;;7.00;93.90;;;;;;5032267;28;20061;-79
2020/12/02 05:58:30;;;;;;;12.83;5.20;;;7.00;93.90;;;;;;5030233;28;20437;-78
2020/12/02 06:00:57;;;;;;;13.83;4.93;;;7.00;93.90;;;;;;5029354;28;20049;-78
2020/12/02 06:03:45;;;;;;;11.20;5.20;;;7.00;93.90;;;;;;5041493;28;20131;-78
2020/12/02 06:06:13;;;;;;;15.00;6.10;;;7.00;93.90;;;;;;5032418;28;20100;-78
2020/12/02 06:08:43;;;;;;;11.13;4.97;;;7.00;93.90;;;;;;5048633;28;20029;-78
2020/12/02 06:11:16;;;;;;;12.87;5.23;;;7.00;93.90;;;;;;5039635;28;20072;-78
2020/12/02 06:13:55;;;;;;;10.77;4.00;;;7.00;93.90;;;;;;5054212;28;20044;-78
2020/12/02 06:16:24;;;;;;;8.33;3.70;;;7.10;93.90;;;;;;5044823;28;20052;-78
2020/12/02 06:18:52;;;;;;;12.57;5.20;;;7.10;93.90;;;;;;5035265;28;20063;-78
2020/12/02 06:21:43;;;;;;;11.40;4.53;;;7.10;93.90;;;;;;5019795;28;20553;-78
2020/12/02 06:24:13;;;;;;;13.83;5.63;;;7.10;93.90;;;;;;5036545;28;20052;-78
2020/12/02 06:26:45;;;;;;;12.80;4.60;;;7.10;93.90;;;;;;5049053;28;20131;-78
2020/12/02 06:29:35;;;;;;;11.70;4.73;;;7.10;93.90;;;;;;5054347;28;20397;-78
2020/12/02 06:32:21;;;;;;;11.10;3.80;;;7.10;93.90;;;;;;5050147;28;20045;-78
2020/12/02 06:34:49;;;;;;;10.00;3.70;;;7.20;93.90;;;;;;5053771;28;20041;-78
2020/12/02 06:37:19;;;;;;;8.30;3.47;;;7.10;93.90;;;;;;5043237;28;20053;-79
2020/12/02 06:39:56;;;;;;;10.03;4.23;;;7.10;93.90;;;;;;5032999;28;20496;-78
2020/12/02 06:42:35;;;;;;;11.47;5.47;;;7.10;94.20;;;;;;5034560;28;20041;-78
2020/12/02 06:45:11;;;;;;;11.67;3.97;;;7.10;93.90;;;;;;5041723;28;20049;-79
2020/12/02 06:48:01;;;;;;;10.50;4.30;;;7.10;93.90;;;;;;5031117;28;20045;-79
2020/12/02 06:50:35;;;;;;;11.70;4.67;;;7.10;93.90;;;;;;5031530;28;20397;-79
2020/12/02 06:53:20;;;;;;;10.60;4.83;;;7.00;94.00;;;;;;5040396;28;20056;-78
2020/12/02 06:55:54;;;;;;;11.80;5.20;;;7.10;94.00;;;;;;5040157;28;20056;-78
2020/12/02 06:58:21;;;;;;;13.83;5.57;;;7.00;93.90;;;;;;5041385;28;20042;-79
2020/12/02 07:00:58;;;;;;;14.03;6.20;;;7.00;93.90;;;;;;4998429;28;20500;-78
2020/12/02 07:03:32;;;;;;;13.30;5.20;;;7.00;93.90;;;;;;5027569;28;20032;-79
2020/12/02 07:06:23;;;;;;;14.40;6.33;;;7.00;94.00;;;;;;5033198;28;20132;-79
2020/12/02 07:08:58;;;;;;;11.17;4.40;;;7.00;93.90;;;;;;5044263;28;20037;-79
2020/12/02 07:11:26;;;;;;;11.20;5.10;;;6.90;93.90;;;;;;5036755;28;20044;-79
2020/12/02 07:13:54;;;;;;;13.37;5.13;;;6.90;93.90;;;;;;5043632;28;20091;-79
2020/12/02 07:16:30;;;;;;;16.13;6.50;;;6.90;93.90;;;;;;5019084;28;20480;-79
2020/12/02 07:19:01;;;;;;;10.97;4.50;;;6.90;93.90;;;;;;5054062;28;20484;-79
2020/12/02 07:21:36;;;;;;;9.17;4.23;;;6.90;94.00;;;;;;5052747;28;20037;-79
2020/12/02 07:24:05;;;;;;;12.97;4.83;;;6.90;94.00;;;;;;5032020;28;20119;-79
2020/12/02 07:26:32;;;;;;;9.07;4.50;;;6.90;94.00;;;;;;5032641;28;20555;-79
2020/12/02 07:29:16;;;;;;;11.33;4.33;;;6.90;94.00;;;;;;5036031;28;20501;-79
2020/12/02 07:31:43;;;;;;;7.23;3.97;;;6.90;94.00;;;;;;5023912;28;20045;-79
2020/12/02 07:34:24;;;;;;;9.17;4.17;;;6.90;94.00;;;;;;5042313;28;20369;-79
2020/12/02 07:37:01;;;;;;;11.63;5.20;;;6.90;94.00;;;;;;5052543;28;20045;-79
2020/12/02 07:39:29;;;;;;;9.17;4.30;;;7.00;94.00;;;;;;5035878;28;20052;-78
2020/12/02 07:42:10;;;;;;;8.07;3.53;;;7.00;94.00;;;;;;5036899;28;20069;-78
2020/12/02 07:44:46;;;;;;;8.85;4.15;;;7.00;94.00;;;;;;5028201;28;20060;-79
2020/12/02 07:47:15;;;;;;;8.77;3.57;;;7.00;94.00;;;;;;5045968;28;20045;-79
2020/12/02 07:49:57;;;;;;;9.23;4.20;;;7.00;94.00;;;;;;5014529;28;20491;-79
2020/12/02 07:52:33;;;;;;;11.17;5.00;;;7.00;94.00;;;;;;5053103;28;20037;-79
2020/12/02 07:55:00;;;;;;;8.47;3.73;;;7.00;93.90;;;;;;5036644;28;20280;-79
2020/12/02 07:57:27;;;;;;;8.07;3.80;;;7.00;93.90;;;;;;5015890;28;20095;-79
2020/12/02 08:00:31;;;;;;;8.57;4.27;;;7.00;93.90;;;;;;5018526;28;20060;-79
2020/12/02 08:03:01;;;;;;;8.27;3.67;;;7.00;93.90;;;;;;5047194;28;20455;-79
2020/12/02 08:05:53;;;;;;;10.53;4.60;;;7.00;94.00;;;;;;5020370;28;20036;-79
2020/12/02 08:08:21;;;;;;;9.30;4.10;;;7.00;93.90;;;;;;5036868;28;20378;-79
2020/12/02 08:10:48;;;;;;;8.40;3.80;;;7.00;94.00;;;;;;5053180;28;20033;-79
2020/12/02 08:13:17;;;;;;;10.20;4.40;;;7.00;93.90;;;;;;5035276;28;20033;-79
2020/12/02 08:15:49;;;;;;;8.43;3.30;;;7.10;94.00;;;;;;5040019;28;20037;-80
2020/12/02 08:18:19;;;;;;;8.00;3.60;;;7.10;94.00;;;;;;5036309;28;20033;-78
2020/12/02 08:20:47;;;;;;;8.67;3.73;;;7.10;94.00;;;;;;5051632;28;20029;-79
2020/12/02 08:23:25;;;;;;;8.53;3.60;;;7.10;93.90;;;;;;5040363;28;20042;-80
2020/12/02 08:25:59;;;;;;;7.13;3.10;;;7.10;93.90;;;;;;5033439;28;20072;-80
2020/12/02 08:28:33;;;;;;;6.17;3.67;;;7.10;93.90;;;;;;5039673;28;20040;-80
2020/12/02 08:34:15;;;;;;;9.20;3.83;;;7.20;93.80;;;;;;5035198;28;20103;-79
2020/12/02 08:36:49;;;;;;;10.83;4.37;;;7.10;93.90;;;;;;5030671;28;20064;-80
2020/12/02 08:39:32;;;;;;;10.57;5.73;;;7.10;93.90;;;;;;5031197;28;20090;-79
2020/12/02 08:41:59;;;;;;;10.63;3.87;;;7.10;93.80;;;;;;5031668;28;20042;-80
2020/12/02 08:44:26;;;;;;;9.40;4.20;;;7.10;94.10;;;;;;5015501;28;20113;-79
2020/12/02 08:47:09;;;;;;;14.97;4.33;;;7.10;93.90;;;;;;5042445;28;20056;-80
2020/12/02 08:49:37;;;;;;;7.47;3.95;;;7.10;93.90;;;;;;5045563;28;20053;-79
2020/12/02 08:52:04;;;;;;;9.70;3.80;;;7.10;93.90;;;;;;5031878;28;20038;-79
2020/12/02 08:54:31;;;;;;;9.07;3.83;;;7.10;93.80;;;;;;5030973;28;20045;-79
2020/12/02 08:57:06;;;;;;;6.77;3.17;;;7.10;93.80;;;;;;5011127;28;20041;-79
2020/12/02 08:59:39;;;;;;;6.77;3.10;;;7.20;93.80;;;;;;5043433;28;20045;-79
2020/12/02 09:02:15;;;;;;;8.33;3.80;;;7.20;93.90;;;;;;5029543;28;20484;-79
2020/12/02 09:04:45;;;;;;;7.10;2.70;;;7.20;93.80;;;;;;5043646;28;20033;-79
2020/12/02 09:07:14;;;;;;;7.93;3.17;;;7.20;93.80;;;;;;5044762;28;20136;-79
2020/12/02 09:09:42;;;;;;;9.80;3.53;;;7.20;93.80;;;;;;5044008;28;20526;-80
2020/12/02 09:12:08;;;;;;;8.67;4.03;;;7.20;93.80;;;;;;5048691;28;20389;-80
2020/12/02 09:14:36;;;;;;;8.40;4.03;;;7.20;93.80;;;;;;5028434;28;20065;-79
2020/12/02 09:17:05;;;;;;;8.30;4.57;;;7.20;93.80;;;;;;5042319;28;20106;-79
2020/12/02 09:19:31;;;;;;;8.47;3.63;;;7.20;93.70;;;;;;5039224;28;20136;-81
2020/12/02 09:21:58;;;;;;;9.40;3.57;;;7.30;93.70;;;;;;5042232;28;20447;-79
2020/12/02 09:24:26;;;;;;;10.13;4.33;;;7.30;93.70;;;;;;5030050;28;20054;-80
2020/12/02 09:26:53;;;;;;;7.80;3.87;;;7.30;93.70;;;;;;5049418;28;20460;-79
2020/12/02 09:29:22;;;;;;;6.50;3.70;;;7.30;93.70;;;;;;5037529;28;20034;-80
2020/12/02 09:31:49;;;;;;;8.53;4.37;;;7.30;93.70;;;;;;5036102;28;20033;-80
2020/12/02 09:34:17;;;;;;;7.77;4.07;;;7.30;93.60;;;;;;5032516;28;20045;-79
2020/12/02 09:36:46;;;;;;;8.67;3.93;;;7.30;93.60;;;;;;5035040;28;20096;-79
2020/12/02 09:39:13;;;;;;;8.10;3.43;;;7.30;93.60;;;;;;5047770;28;20097;-81
2020/12/02 09:41:59;;;;;;;6.97;3.77;;;7.30;93.60;;;;;;5024632;28;20080;-81
2020/12/02 09:44:40;;;;;;;6.43;3.27;;;7.30;93.60;;;;;;5054708;28;20041;-81
2020/12/02 09:47:13;;;;;;;7.70;3.27;;;7.40;93.60;;;;;;5026366;28;20053;-81
2020/12/02 09:49:43;;;;;;;9.20;3.83;;;7.40;93.60;;;;;;5033092;28;20037;-79
2020/12/02 09:52:09;;;;;;;7.90;3.83;;;7.40;93.60;;;;;;5042068;28;20129;-80
2020/12/02 09:54:46;;;;;;;5.93;2.83;;;7.40;93.60;;;;;;5039921;28;20060;-80
2020/12/02 09:57:39;;;;;;;7.20;3.03;;;7.30;93.50;;;;;;5043920;28;20041;-80
2020/12/02 10:00:08;;;;;;;5.68;2.58;;;7.40;93.60;;;;;;5031880;28;20115;-80
2020/12/02 10:02:35;;;;;;;6.80;2.80;;;7.30;93.60;;;;;;5037699;28;20072;-80
2020/12/02 10:05:14;;;;;;;8.10;3.90;;;7.40;93.70;;;;;;5024278;28;20784;-80
2020/12/02 10:08:15;;;;;;;8.60;3.53;;;7.40;93.60;;;;;;5053085;28;20485;-81
2020/12/02 10:11:05;;;;;;;8.03;3.47;;;7.40;93.50;;;;;;5046605;28;20040;-80
2020/12/02 10:13:53;;;;;;;5.80;2.77;;;7.40;93.50;;;;;;5049259;28;20040;-74
2020/12/02 10:16:43;;;;;;;7.53;3.03;;;7.40;93.60;;;;;;5009608;28;20079;-74
2020/12/02 10:19:19;;;;;;;9.60;3.73;;;7.40;93.60;;;;;;5037702;28;20489;-74
2020/12/02 10:22:29;;;;;;;8.23;3.50;;;7.40;93.60;;;;;;5024127;28;20060;-73
2020/12/02 10:25:17;;;;;;;8.40;3.80;;;7.40;93.90;;;;;;5027819;28;20474;-73
2020/12/02 10:28:14;;;;;;;8.27;3.50;;;7.40;93.50;;;;;;5019746;28;20044;-73
2020/12/02 10:30:56;;;;;;;10.00;4.63;;;7.40;93.50;;;;;;5035634;28;20120;-72
2020/12/02 10:33:53;;;;;;;8.87;4.33;;;7.40;93.50;;;;;;5044485;28;20436;-74
2020/12/02 10:36:21;;;;;;;7.43;3.60;;;7.40;93.50;;;;;;5019963;28;20413;-74
2020/12/02 10:38:52;;;;;;;9.57;4.10;;;7.30;93.60;;;;;;5010781;28;20140;-73
2020/12/02 10:41:34;;;;;;;10.30;4.37;;;7.40;93.60;;;;;;5023647;28;20180;-74
2020/12/02 10:44:10;;;;;;;8.93;4.03;;;7.40;93.60;;;;;;5044383;28;20054;-75
2020/12/02 10:46:56;;;;;;;7.07;3.17;;;7.40;93.60;;;;;;5049032;28;20048;-80
2020/12/02 10:49:28;;;;;;;7.73;3.53;;;7.40;93.50;;;;;;5047541;28;20041;-80
2020/12/02 10:51:58;;;;;;;9.30;3.78;;;7.40;93.60;;;;;;5043984;28;20052;-80
2020/12/02 10:54:35;;;;;;;7.60;4.00;;;7.40;93.60;;;;;;5033865;28;20034;-77
2020/12/02 10:57:28;;;;;;;7.63;3.43;;;7.50;93.60;;;;;;5042999;28;20072;-79
2020/12/02 10:59:58;;;;;;;6.07;2.63;;;7.50;93.60;;;;;;5034056;28;20766;-78
2020/12/02 11:02:30;;;;;;;7.10;2.77;;;7.50;93.60;;;;;;5023217;28;20037;-77
2020/12/02 11:04:58;;;;;;;7.35;3.50;;;7.50;93.60;;;;;;5031290;28;20047;-73
2020/12/02 11:07:33;;;;;;;6.23;3.30;;;7.50;93.60;;;;;;5052233;28;20065;-73
2020/12/02 11:10:22;;;;;;;7.77;3.43;;;7.50;93.50;;;;;;5038176;28;20568;-73
2020/12/02 11:13:14;;;;;;;8.10;3.43;;;7.50;93.50;;;;;;5047223;28;20041;-73
2020/12/02 11:15:50;;;;;;;7.43;2.83;;;7.60;93.70;;;;;;5047447;28;20045;-73
2020/12/02 11:18:32;;;;;;;7.80;3.67;;;7.60;93.60;;;;;;5045874;28;20077;-72
2020/12/02 11:21:50;;;;;;;7.60;3.23;;;7.60;93.50;;;;;;5004292;28;20041;-72
2020/12/02 11:24:22;;;;;;;7.87;3.50;;;7.60;93.50;;;;;;5027299;28;20094;-75
2020/12/02 11:26:49;;;;;;;7.95;2.60;;;7.50;93.60;;;;;;5045228;28;20198;-74
2020/12/02 11:29:18;;;;;;;6.97;2.80;;;7.50;93.50;;;;;;5027445;28;20384;-76
2020/12/02 11:32:00;;;;;;;6.70;3.97;;;7.50;93.60;;;;;;5022621;28;20044;-74
2020/12/02 11:34:29;;;;;;;7.80;3.17;;;7.50;93.60;;;;;;5029517;28;20046;-74
2020/12/02 11:37:25;;;;;;;8.50;3.73;;;7.50;93.50;;;;;;5036070;28;20061;-76
2020/12/02 11:40:07;;;;;;;7.70;3.27;;;7.50;93.50;;;;;;5015987;28;20045;-75
2020/12/02 11:42:57;;;;;;;7.10;3.33;;;7.50;93.50;;;;;;5050270;28;20428;-75
2020/12/02 11:45:35;;;;;;;9.00;3.57;;;7.60;93.50;;;;;;5045491;28;20045;-76
2020/12/02 11:48:16;;;;;;;6.57;3.23;;;7.50;93.50;;;;;;5034920;28;20410;-75
2020/12/02 11:50:48;;;;;;;9.20;3.53;;;7.50;93.50;;;;;;5024518;28;20142;-74
2020/12/02 11:53:33;;;;;;;7.13;2.85;;;7.50;93.60;;;;;;5051299;28;20077;-75
2020/12/02 11:56:01;;;;;;;11.20;3.47;;;7.50;93.60;;;;;;5043349;28;20045;-74
2020/12/02 11:58:28;;;;;;;10.13;3.83;;;7.50;93.60;;;;;;5018320;28;20037;-75
2020/12/02 12:01:03;;;;;;;7.20;3.10;;;7.60;93.60;;;;;;5014495;28;20046;-74
2020/12/02 12:03:40;;;;;;;10.07;2.83;;;7.60;93.60;;;;;;5048004;28;20041;-74
2020/12/02 12:06:20;;;;;;;7.13;3.03;;;7.60;93.60;;;;;;5037406;28;20049;-74
2020/12/02 12:09:15;;;;;;;6.30;3.03;;;7.60;93.60;;;;;;5020421;28;20049;-74
2020/12/02 12:11:49;;;;;;;7.53;3.00;;;7.60;93.60;;;;;;5033573;28;20053;-74
2020/12/02 12:14:43;;;;;;;8.90;2.90;;;7.60;93.60;;;;;;5020363;28;20427;-79
2020/12/02 12:17:22;;;;;;;9.67;3.27;;;7.60;93.60;;;;;;5020288;28;20044;-78
2020/12/02 12:20:19;;;;;;;7.23;3.03;;;7.60;93.60;;;;;;5033924;28;20045;-78
2020/12/02 12:22:52;;;;;;;11.63;4.53;;;7.60;93.50;;;;;;5025405;28;20096;-81
2020/12/02 12:25:39;;;;;;;10.50;3.53;;;7.60;93.60;;;;;;5034245;28;20545;-79
2020/12/02 12:28:20;;;;;;;11.13;3.63;;;7.60;93.60;;;;;;5051538;28;20052;-79
2020/12/02 12:30:46;;;;;;;7.87;2.87;;;7.60;93.60;;;;;;5038230;28;20048;-79
2020/12/02 12:33:30;;;;;;;10.07;4.37;;;7.50;93.60;;;;;;5035422;28;20059;-79
2020/12/02 12:36:08;;;;;;;7.47;3.50;;;7.60;93.60;;;;;;5037728;28;20045;-79
2020/12/02 12:38:45;;;;;;;7.70;3.30;;;7.50;93.50;;;;;;5033085;28;20136;-78
2020/12/02 12:41:31;;;;;;;8.37;3.70;;;7.60;93.60;;;;;;5031525;28;20041;-80
2020/12/02 12:44:04;;;;;;;9.97;3.63;;;7.50;93.50;;;;;;5027016;28;20099;-79
2020/12/02 12:46:59;;;;;;;9.10;3.53;;;7.60;93.60;;;;;;5026327;28;20556;-79
2020/12/02 12:49:31;;;;;;;8.47;3.33;;;7.60;93.60;;;;;;5008190;28;20072;-79
2020/12/02 12:52:00;;;;;;;8.70;2.97;;;7.50;93.50;;;;;;5022176;28;20489;-81
2020/12/02 12:54:27;;;;;;;8.10;3.17;;;7.50;93.60;;;;;;5026387;28;20676;-79
2020/12/02 12:56:56;;;;;;;6.33;3.33;;;7.60;93.60;;;;;;5022792;28;20069;-72
2020/12/02 12:59:24;;;;;;;8.30;4.10;;;7.50;93.60;;;;;;5028888;28;20123;-72
2020/12/02 13:01:54;;;;;;;9.77;3.90;;;7.60;93.60;;;;;;5020098;28;20044;-72
2020/12/02 13:04:23;;;;;;;10.33;4.23;;;7.60;93.50;;;;;;5029405;28;20065;-73
2020/12/02 13:07:13;;;;;;;10.27;4.70;;;7.60;93.50;;;;;;5031051;28;20052;-73
2020/12/02 13:10:13;;;;;;;12.07;5.53;;;7.60;93.50;;;;;;5015847;28;20038;-72
2020/12/02 13:13:00;;;;;;;17.07;6.63;;;7.50;93.40;;;;;;5024052;28;20034;-72
2020/12/02 13:15:44;;;;;;;14.93;5.77;;;7.50;93.30;;;;;;5019499;28;20428;-72
2020/12/02 13:18:22;;;;;;;11.30;4.57;;;7.50;93.40;;;;;;5008867;28;20053;-73
2020/12/02 13:21:06;;;;;;;13.07;5.37;;;7.50;93.40;;;;;;5037373;28;20451;-73
2020/12/02 13:23:40;;;;;;;14.40;6.07;;;7.50;93.40;;;;;;5042322;28;20100;-74
2020/12/02 13:26:13;;;;;;;11.03;5.00;;;7.40;93.40;;;;;;5010358;28;20057;-72
2020/12/02 13:28:53;;;;;;;15.80;6.75;;;7.40;93.40;;;;;;5028247;28;20048;-73
2020/12/02 13:31:31;;;;;;;13.90;5.93;;;7.40;93.40;;;;;;5012825;28;20057;-74